sensor_id;sensor_type;location;lat;lon;timestamp;temperature;humidity
22161;DHT22;49035;48.812;11.762;2023-10-09T00:00:33;10.00;99.90
22161;DHT22;49035;48.812;11.762;2023-10-09T00:03:20;10.00;99.90
22161;DHT22;49035;48.812;11.762;2023-10-09T00:05:48;10.00;99.90
22161;DHT22;49035;48.812;11.762;2023-10-09T00:08:18;10.00;99.90
22161;DHT22;49035;48.812;11.762;2023-10-09T00:10:58;10.00;99.90
22161;DHT22;49035;48.812;11.762;2023-10-09T00:13:43;10.00;99.90
22161;DHT22;49035;48.812;11.762;2023-10-09T00:16:21;9.90;99.90
22161;DHT22;49035;48.812;11.762;2023-10-09T00:19:04;10.00;99.90
22161;DHT22;49035;48.812;11.762;2023-10-09T00:21:47;10.10;99.90
22161;DHT22;49035;48.812;11.762;2023-10-09T00:24:13;10.00;99.90
22161;DHT22;49035;48.812;11.762;2023-10-09T00:26:48;10.20;99.90
22161;DHT22;49035;48.812;11.762;2023-10-09T00:29:15;10.00;99.90
22161;DHT22;49035;48.812;11.762;2023-10-09T00:31:50;9.90;99.90
22161;DHT22;49035;48.812;11.762;2023-10-09T00:34:17;9.80;99.90
22161;DHT22;49035;48.812;11.762;2023-10-09T00:36:48;9.60;99.90
22161;DHT22;49035;48.812;11.762;2023-10-09T00:39:18;9.50;99.90
22161;DHT22;49035;48.812;11.762;2023-10-09T00:42:03;9.40;99.90
22161;DHT22;49035;48.812;11.762;2023-10-09T00:44:32;9.40;99.90
22161;DHT22;49035;48.812;11.762;2023-10-09T00:47:12;9.50;99.90
22161;DHT22;49035;48.812;11.762;2023-10-09T00:50:07;9.40;99.90
22161;DHT22;49035;48.812;11.762;2023-10-09T00:52:49;9.40;99.90
22161;DHT22;49035;48.812;11.762;2023-10-09T00:55:20;9.40;99.90
22161;DHT22;49035;48.812;11.762;2023-10-09T00:57:53;9.40;99.90
22161;DHT22;49035;48.812;11.762;2023-10-09T01:00:26;9.50;99.90
22161;DHT22;49035;48.812;11.762;2023-10-09T01:03:04;9.50;99.90
22161;DHT22;49035;48.812;11.762;2023-10-09T01:05:48;9.50;99.90
22161;DHT22;49035;48.812;11.762;2023-10-09T01:08:21;9.40;99.90
22161;DHT22;49035;48.812;11.762;2023-10-09T01:10:54;9.40;99.90
22161;DHT22;49035;48.812;11.762;2023-10-09T01:13:25;9.60;99.90
22161;DHT22;49035;48.812;11.762;2023-10-09T01:15:54;9.60;99.90
22161;DHT22;49035;48.812;11.762;2023-10-09T01:18:24;9.70;99.90
22161;DHT22;49035;48.812;11.762;2023-10-09T01:20:57;9.60;99.90
22161;DHT22;49035;48.812;11.762;2023-10-09T01:23:23;9.50;99.90
22161;DHT22;49035;48.812;11.762;2023-10-09T01:25:49;9.50;99.90
22161;DHT22;49035;48.812;11.762;2023-10-09T01:28:16;9.40;99.90
22161;DHT22;49035;48.812;11.762;2023-10-09T01:30:44;9.50;99.90
22161;DHT22;49035;48.812;11.762;2023-10-09T01:33:11;9.50;99.90
22161;DHT22;49035;48.812;11.762;2023-10-09T01:35:50;9.50;99.90
22161;DHT22;49035;48.812;11.762;2023-10-09T01:38:21;9.40;99.90
22161;DHT22;49035;48.812;11.762;2023-10-09T01:40:57;9.50;99.90
22161;DHT22;49035;48.812;11.762;2023-10-09T01:43:30;9.60;99.90
22161;DHT22;49035;48.812;11.762;2023-10-09T01:45:59;9.60;99.90
22161;DHT22;49035;48.812;11.762;2023-10-09T01:48:26;9.60;99.90
22161;DHT22;49035;48.812;11.762;2023-10-09T01:50:52;9.50;99.90
22161;DHT22;49035;48.812;11.762;2023-10-09T01:53:19;9.50;99.90
22161;DHT22;49035;48.812;11.762;2023-10-09T01:55:47;9.60;99.90
22161;DHT22;49035;48.812;11.762;2023-10-09T01:58:15;9.60;99.90
22161;DHT22;49035;48.812;11.762;2023-10-09T02:00:58;9.60;99.90
22161;DHT22;49035;48.812;11.762;2023-10-09T02:03:30;9.70;99.90
22161;DHT22;49035;48.812;11.762;2023-10-09T02:05:56;9.60;99.90
22161;DHT22;49035;48.812;11.762;2023-10-09T02:08:25;9.50;99.90
22161;DHT22;49035;48.812;11.762;2023-10-09T02:11:01;9.50;99.90
22161;DHT22;49035;48.812;11.762;2023-10-09T02:13:28;9.60;99.90
22161;DHT22;49035;48.812;11.762;2023-10-09T02:16:00;9.60;99.90
22161;DHT22;49035;48.812;11.762;2023-10-09T02:18:40;9.60;99.90
22161;DHT22;49035;48.812;11.762;2023-10-09T02:21:18;9.60;99.90
22161;DHT22;49035;48.812;11.762;2023-10-09T02:23:54;9.60;99.90
22161;DHT22;49035;48.812;11.762;2023-10-09T02:26:22;9.70;99.90
22161;DHT22;49035;48.812;11.762;2023-10-09T02:28:55;9.70;99.90
22161;DHT22;49035;48.812;11.762;2023-10-09T02:31:25;9.80;99.90
22161;DHT22;49035;48.812;11.762;2023-10-09T02:33:54;10.00;99.90
22161;DHT22;49035;48.812;11.762;2023-10-09T02:36:21;9.90;99.90
22161;DHT22;49035;48.812;11.762;2023-10-09T02:38:47;9.90;99.90
22161;DHT22;49035;48.812;11.762;2023-10-09T02:41:15;9.90;99.90
22161;DHT22;49035;48.812;11.762;2023-10-09T02:43:41;9.90;99.90
22161;DHT22;49035;48.812;11.762;2023-10-09T02:46:13;9.90;99.90
22161;DHT22;49035;48.812;11.762;2023-10-09T02:48:43;9.90;99.90
22161;DHT22;49035;48.812;11.762;2023-10-09T02:51:11;9.90;99.90
22161;DHT22;49035;48.812;11.762;2023-10-09T02:54:00;9.90;99.90
22161;DHT22;49035;48.812;11.762;2023-10-09T02:56:36;9.80;99.90
22161;DHT22;49035;48.812;11.762;2023-10-09T02:59:05;9.70;99.90
22161;DHT22;49035;48.812;11.762;2023-10-09T03:01:34;9.70;99.90
22161;DHT22;49035;48.812;11.762;2023-10-09T03:04:01;9.70;99.90
22161;DHT22;49035;48.812;11.762;2023-10-09T03:06:28;9.60;99.90
22161;DHT22;49035;48.812;11.762;2023-10-09T03:08:57;9.60;99.90
22161;DHT22;49035;48.812;11.762;2023-10-09T03:11:23;9.50;99.90
22161;DHT22;49035;48.812;11.762;2023-10-09T03:13:48;9.50;99.90
22161;DHT22;49035;48.812;11.762;2023-10-09T03:16:14;9.40;99.90
22161;DHT22;49035;48.812;11.762;2023-10-09T03:18:41;9.50;99.90
22161;DHT22;49035;48.812;11.762;2023-10-09T03:21:08;9.60;99.90
22161;DHT22;49035;48.812;11.762;2023-10-09T03:23:34;9.50;99.90
22161;DHT22;49035;48.812;11.762;2023-10-09T03:25:59;9.50;99.90
22161;DHT22;49035;48.812;11.762;2023-10-09T03:28:25;9.40;99.90
22161;DHT22;49035;48.812;11.762;2023-10-09T03:30:51;9.30;99.90
22161;DHT22;49035;48.812;11.762;2023-10-09T03:33:18;9.30;99.90
22161;DHT22;49035;48.812;11.762;2023-10-09T03:35:44;9.20;99.90
22161;DHT22;49035;48.812;11.762;2023-10-09T03:38:10;9.20;99.90
22161;DHT22;49035;48.812;11.762;2023-10-09T03:40:45;9.20;99.90
22161;DHT22;49035;48.812;11.762;2023-10-09T03:43:14;9.10;99.90
22161;DHT22;49035;48.812;11.762;2023-10-09T03:45:40;9.10;99.90
22161;DHT22;49035;48.812;11.762;2023-10-09T03:48:18;9.10;99.90
22161;DHT22;49035;48.812;11.762;2023-10-09T03:51:00;9.10;99.90
22161;DHT22;49035;48.812;11.762;2023-10-09T03:53:37;9.10;99.90
22161;DHT22;49035;48.812;11.762;2023-10-09T03:56:05;9.10;99.90
22161;DHT22;49035;48.812;11.762;2023-10-09T03:58:38;9.10;99.90
22161;DHT22;49035;48.812;11.762;2023-10-09T04:01:41;9.00;99.90
22161;DHT22;49035;48.812;11.762;2023-10-09T04:04:06;9.00;99.90
22161;DHT22;49035;48.812;11.762;2023-10-09T04:06:33;9.10;99.90
22161;DHT22;49035;48.812;11.762;2023-10-09T04:09:07;9.20;99.90
22161;DHT22;49035;48.812;11.762;2023-10-09T04:11:52;9.10;99.90
22161;DHT22;49035;48.812;11.762;2023-10-09T04:14:40;9.10;99.90
22161;DHT22;49035;48.812;11.762;2023-10-09T04:17:20;9.10;99.90
22161;DHT22;49035;48.812;11.762;2023-10-09T04:19:49;9.10;99.90
22161;DHT22;49035;48.812;11.762;2023-10-09T04:22:38;9.00;99.90
22161;DHT22;49035;48.812;11.762;2023-10-09T04:25:20;9.00;99.90
22161;DHT22;49035;48.812;11.762;2023-10-09T04:27:56;9.00;99.90
22161;DHT22;49035;48.812;11.762;2023-10-09T04:30:41;9.10;99.90
22161;DHT22;49035;48.812;11.762;2023-10-09T04:33:09;9.30;99.90
22161;DHT22;49035;48.812;11.762;2023-10-09T04:35:55;9.60;99.90
22161;DHT22;49035;48.812;11.762;2023-10-09T04:38:37;9.90;99.90
22161;DHT22;49035;48.812;11.762;2023-10-09T04:41:05;10.00;99.90
22161;DHT22;49035;48.812;11.762;2023-10-09T04:43:31;10.00;99.90
22161;DHT22;49035;48.812;11.762;2023-10-09T04:45:58;9.90;99.90
22161;DHT22;49035;48.812;11.762;2023-10-09T04:48:38;10.00;99.90
22161;DHT22;49035;48.812;11.762;2023-10-09T04:51:07;10.00;99.90
22161;DHT22;49035;48.812;11.762;2023-10-09T04:54:00;9.80;99.90
22161;DHT22;49035;48.812;11.762;2023-10-09T04:56:40;9.70;99.90
22161;DHT22;49035;48.812;11.762;2023-10-09T04:59:19;9.70;99.90
22161;DHT22;49035;48.812;11.762;2023-10-09T05:01:44;9.70;99.90
22161;DHT22;49035;48.812;11.762;2023-10-09T05:04:12;9.90;99.90
22161;DHT22;49035;48.812;11.762;2023-10-09T05:06:56;10.00;99.90
22161;DHT22;49035;48.812;11.762;2023-10-09T05:09:22;9.90;99.90
22161;DHT22;49035;48.812;11.762;2023-10-09T05:11:49;9.90;99.90
22161;DHT22;49035;48.812;11.762;2023-10-09T05:14:17;9.90;99.90
22161;DHT22;49035;48.812;11.762;2023-10-09T05:16:52;9.80;99.90
22161;DHT22;49035;48.812;11.762;2023-10-09T05:19:22;9.80;99.90
22161;DHT22;49035;48.812;11.762;2023-10-09T05:22:06;9.90;99.90
22161;DHT22;49035;48.812;11.762;2023-10-09T05:24:33;10.00;99.90
22161;DHT22;49035;48.812;11.762;2023-10-09T05:27:09;10.00;99.90
22161;DHT22;49035;48.812;11.762;2023-10-09T05:29:43;10.10;99.90
22161;DHT22;49035;48.812;11.762;2023-10-09T05:32:25;10.20;99.90
22161;DHT22;49035;48.812;11.762;2023-10-09T05:34:55;10.20;99.90
22161;DHT22;49035;48.812;11.762;2023-10-09T05:37:24;10.20;99.90
22161;DHT22;49035;48.812;11.762;2023-10-09T05:39:51;10.20;99.90
22161;DHT22;49035;48.812;11.762;2023-10-09T05:42:27;10.20;99.90
22161;DHT22;49035;48.812;11.762;2023-10-09T05:45:06;10.30;99.90
22161;DHT22;49035;48.812;11.762;2023-10-09T05:47:52;10.30;99.90
22161;DHT22;49035;48.812;11.762;2023-10-09T05:50:36;10.30;99.90
22161;DHT22;49035;48.812;11.762;2023-10-09T05:53:25;10.30;99.90
22161;DHT22;49035;48.812;11.762;2023-10-09T05:56:20;10.30;99.90
22161;DHT22;49035;48.812;11.762;2023-10-09T05:59:04;10.40;99.90
22161;DHT22;49035;48.812;11.762;2023-10-09T06:01:49;10.50;99.90
22161;DHT22;49035;48.812;11.762;2023-10-09T06:04:33;10.60;99.90
22161;DHT22;49035;48.812;11.762;2023-10-09T06:07:20;10.70;99.90
22161;DHT22;49035;48.812;11.762;2023-10-09T06:09:50;10.80;99.90
22161;DHT22;49035;48.812;11.762;2023-10-09T06:12:18;10.80;99.90
22161;DHT22;49035;48.812;11.762;2023-10-09T06:15:15;11.00;99.90
22161;DHT22;49035;48.812;11.762;2023-10-09T06:17:59;11.10;99.90
22161;DHT22;49035;48.812;11.762;2023-10-09T06:20:47;11.20;99.90
22161;DHT22;49035;48.812;11.762;2023-10-09T06:23:32;11.30;99.90
22161;DHT22;49035;48.812;11.762;2023-10-09T06:26:22;11.40;99.90
22161;DHT22;49035;48.812;11.762;2023-10-09T06:28:51;11.60;99.90
22161;DHT22;49035;48.812;11.762;2023-10-09T06:31:37;11.60;99.90
22161;DHT22;49035;48.812;11.762;2023-10-09T06:34:35;11.70;99.90
22161;DHT22;49035;48.812;11.762;2023-10-09T06:37:01;12.00;99.90
22161;DHT22;49035;48.812;11.762;2023-10-09T06:39:43;12.10;99.90
22161;DHT22;49035;48.812;11.762;2023-10-09T06:42:24;12.20;99.90
22161;DHT22;49035;48.812;11.762;2023-10-09T06:44:56;12.40;99.90
22161;DHT22;49035;48.812;11.762;2023-10-09T06:47:24;12.60;99.90
22161;DHT22;49035;48.812;11.762;2023-10-09T06:49:50;12.80;99.90
22161;DHT22;49035;48.812;11.762;2023-10-09T06:52:34;12.90;99.90
22161;DHT22;49035;48.812;11.762;2023-10-09T06:55:18;13.10;99.90
22161;DHT22;49035;48.812;11.762;2023-10-09T06:57:46;13.10;99.90
22161;DHT22;49035;48.812;11.762;2023-10-09T07:00:15;13.20;99.90
22161;DHT22;49035;48.812;11.762;2023-10-09T07:03:01;13.30;99.90
22161;DHT22;49035;48.812;11.762;2023-10-09T07:05:37;13.30;99.90
22161;DHT22;49035;48.812;11.762;2023-10-09T07:08:13;13.40;99.90
22161;DHT22;49035;48.812;11.762;2023-10-09T07:11:00;13.60;99.90
22161;DHT22;49035;48.812;11.762;2023-10-09T07:13:44;13.80;99.90
22161;DHT22;49035;48.812;11.762;2023-10-09T07:16:22;13.80;99.90
22161;DHT22;49035;48.812;11.762;2023-10-09T07:19:06;13.90;99.90
22161;DHT22;49035;48.812;11.762;2023-10-09T07:21:36;13.90;99.90
22161;DHT22;49035;48.812;11.762;2023-10-09T07:24:05;14.20;99.90
22161;DHT22;49035;48.812;11.762;2023-10-09T07:26:40;14.30;99.90
22161;DHT22;49035;48.812;11.762;2023-10-09T07:29:13;14.50;99.90
22161;DHT22;49035;48.812;11.762;2023-10-09T07:31:45;14.70;99.90
22161;DHT22;49035;48.812;11.762;2023-10-09T07:34:12;15.00;99.90
22161;DHT22;49035;48.812;11.762;2023-10-09T07:37:03;15.10;99.90
22161;DHT22;49035;48.812;11.762;2023-10-09T07:39:31;15.10;99.90
22161;DHT22;49035;48.812;11.762;2023-10-09T07:42:09;15.30;99.90
22161;DHT22;49035;48.812;11.762;2023-10-09T07:44:45;15.60;99.90
22161;DHT22;49035;48.812;11.762;2023-10-09T07:47:18;15.80;99.90
22161;DHT22;49035;48.812;11.762;2023-10-09T07:50:03;15.90;99.90
22161;DHT22;49035;48.812;11.762;2023-10-09T07:52:29;16.10;99.90
22161;DHT22;49035;48.812;11.762;2023-10-09T07:54:55;16.20;99.90
22161;DHT22;49035;48.812;11.762;2023-10-09T07:57:27;16.40;99.90
22161;DHT22;49035;48.812;11.762;2023-10-09T07:59:54;16.60;99.90
22161;DHT22;49035;48.812;11.762;2023-10-09T08:02:22;16.80;99.90
22161;DHT22;49035;48.812;11.762;2023-10-09T08:05:01;17.00;99.90
22161;DHT22;49035;48.812;11.762;2023-10-09T08:07:33;17.30;99.90
22161;DHT22;49035;48.812;11.762;2023-10-09T08:10:04;17.30;99.90
22161;DHT22;49035;48.812;11.762;2023-10-09T08:12:40;17.50;99.90
22161;DHT22;49035;48.812;11.762;2023-10-09T08:15:16;17.60;99.90
22161;DHT22;49035;48.812;11.762;2023-10-09T08:17:55;17.70;99.90
22161;DHT22;49035;48.812;11.762;2023-10-09T08:20:39;17.90;99.90
22161;DHT22;49035;48.812;11.762;2023-10-09T08:23:23;18.20;99.90
22161;DHT22;49035;48.812;11.762;2023-10-09T08:26:04;18.50;99.90
22161;DHT22;49035;48.812;11.762;2023-10-09T08:28:38;18.70;99.90
22161;DHT22;49035;48.812;11.762;2023-10-09T08:31:15;18.60;99.90
22161;DHT22;49035;48.812;11.762;2023-10-09T08:33:46;18.60;99.90
22161;DHT22;49035;48.812;11.762;2023-10-09T08:36:22;18.70;99.90
22161;DHT22;49035;48.812;11.762;2023-10-09T08:38:48;18.80;99.90
22161;DHT22;49035;48.812;11.762;2023-10-09T08:41:14;18.90;99.90
22161;DHT22;49035;48.812;11.762;2023-10-09T08:43:53;19.10;99.90
22161;DHT22;49035;48.812;11.762;2023-10-09T08:46:20;19.20;99.90
22161;DHT22;49035;48.812;11.762;2023-10-09T08:48:46;19.30;99.90
22161;DHT22;49035;48.812;11.762;2023-10-09T08:51:13;19.20;99.90
22161;DHT22;49035;48.812;11.762;2023-10-09T08:53:40;19.30;99.90
22161;DHT22;49035;48.812;11.762;2023-10-09T08:56:12;19.40;99.90
22161;DHT22;49035;48.812;11.762;2023-10-09T08:58:41;19.30;99.90
22161;DHT22;49035;48.812;11.762;2023-10-09T09:01:06;19.30;99.90
22161;DHT22;49035;48.812;11.762;2023-10-09T09:03:40;19.30;99.90
22161;DHT22;49035;48.812;11.762;2023-10-09T09:06:09;19.30;99.90
22161;DHT22;49035;48.812;11.762;2023-10-09T09:08:34;19.30;99.90
22161;DHT22;49035;48.812;11.762;2023-10-09T09:11:14;19.10;99.90
22161;DHT22;49035;48.812;11.762;2023-10-09T09:16:25;19.60;99.90
22161;DHT22;49035;48.812;11.762;2023-10-09T09:19:02;19.80;99.90
22161;DHT22;49035;48.812;11.762;2023-10-09T09:21:47;20.20;99.90
22161;DHT22;49035;48.812;11.762;2023-10-09T09:24:14;20.50;99.90
22161;DHT22;49035;48.812;11.762;2023-10-09T09:26:42;20.60;99.90
22161;DHT22;49035;48.812;11.762;2023-10-09T09:29:12;20.70;99.90
22161;DHT22;49035;48.812;11.762;2023-10-09T09:31:38;20.90;99.90
22161;DHT22;49035;48.812;11.762;2023-10-09T09:34:07;21.00;99.90
22161;DHT22;49035;48.812;11.762;2023-10-09T09:36:57;20.90;99.90
22161;DHT22;49035;48.812;11.762;2023-10-09T09:39:27;20.70;99.90
22161;DHT22;49035;48.812;11.762;2023-10-09T09:41:58;20.50;99.90
22161;DHT22;49035;48.812;11.762;2023-10-09T09:44:33;20.50;99.90
22161;DHT22;49035;48.812;11.762;2023-10-09T09:47:09;20.50;99.90
22161;DHT22;49035;48.812;11.762;2023-10-09T09:49:41;20.60;99.90
22161;DHT22;49035;48.812;11.762;2023-10-09T09:52:08;20.60;99.90
22161;DHT22;49035;48.812;11.762;2023-10-09T09:54:36;20.80;99.90
22161;DHT22;49035;48.812;11.762;2023-10-09T09:57:03;20.90;99.90
22161;DHT22;49035;48.812;11.762;2023-10-09T09:59:40;21.10;99.90
22161;DHT22;49035;48.812;11.762;2023-10-09T10:02:09;21.30;99.50
22161;DHT22;49035;48.812;11.762;2023-10-09T10:04:39;21.30;99.30
22161;DHT22;49035;48.812;11.762;2023-10-09T10:07:06;21.40;98.40
22161;DHT22;49035;48.812;11.762;2023-10-09T10:09:42;21.40;98.10
22161;DHT22;49035;48.812;11.762;2023-10-09T10:15:11;22.10;97.70
22161;DHT22;49035;48.812;11.762;2023-10-09T10:18:07;22.30;97.30
22161;DHT22;49035;48.812;11.762;2023-10-09T10:23:42;22.80;94.60
22161;DHT22;49035;48.812;11.762;2023-10-09T10:26:18;23.00;93.80
22161;DHT22;49035;48.812;11.762;2023-10-09T10:29:15;23.00;93.70
22161;DHT22;49035;48.812;11.762;2023-10-09T10:32:02;23.30;93.90
22161;DHT22;49035;48.812;11.762;2023-10-09T10:34:53;23.70;92.80
22161;DHT22;49035;48.812;11.762;2023-10-09T10:37:42;23.90;91.90
22161;DHT22;49035;48.812;11.762;2023-10-09T10:40:27;23.90;91.30
22161;DHT22;49035;48.812;11.762;2023-10-09T10:43:18;23.80;90.10
22161;DHT22;49035;48.812;11.762;2023-10-09T10:46:05;23.50;90.40
22161;DHT22;49035;48.812;11.762;2023-10-09T10:48:40;23.40;89.50
22161;DHT22;49035;48.812;11.762;2023-10-09T10:51:12;23.30;91.10
22161;DHT22;49035;48.812;11.762;2023-10-09T10:53:53;23.10;90.90
22161;DHT22;49035;48.812;11.762;2023-10-09T10:56:25;22.80;90.50
22161;DHT22;49035;48.812;11.762;2023-10-09T10:59:00;22.40;91.50
22161;DHT22;49035;48.812;11.762;2023-10-09T11:01:33;22.10;91.70
22161;DHT22;49035;48.812;11.762;2023-10-09T11:04:22;21.90;91.80
22161;DHT22;49035;48.812;11.762;2023-10-09T11:07:04;21.70;92.60
22161;DHT22;49035;48.812;11.762;2023-10-09T11:09:48;21.40;93.50
22161;DHT22;49035;48.812;11.762;2023-10-09T11:12:44;21.10;93.30
22161;DHT22;49035;48.812;11.762;2023-10-09T11:15:33;20.90;93.20
22161;DHT22;49035;48.812;11.762;2023-10-09T11:18:13;20.80;93.90
22161;DHT22;49035;48.812;11.762;2023-10-09T11:20:49;20.60;94.10
22161;DHT22;49035;48.812;11.762;2023-10-09T11:23:24;20.40;94.80
22161;DHT22;49035;48.812;11.762;2023-10-09T11:26:00;20.40;95.10
22161;DHT22;49035;48.812;11.762;2023-10-09T11:28:45;20.30;95.40
22161;DHT22;49035;48.812;11.762;2023-10-09T11:31:23;20.30;95.50
22161;DHT22;49035;48.812;11.762;2023-10-09T11:33:50;20.20;96.00
22161;DHT22;49035;48.812;11.762;2023-10-09T11:36:23;20.20;96.00
22161;DHT22;49035;48.812;11.762;2023-10-09T11:39:01;20.30;96.80
22161;DHT22;49035;48.812;11.762;2023-10-09T11:41:43;20.30;96.70
22161;DHT22;49035;48.812;11.762;2023-10-09T11:44:10;20.40;96.10
22161;DHT22;49035;48.812;11.762;2023-10-09T11:46:57;20.50;95.80
22161;DHT22;49035;48.812;11.762;2023-10-09T11:49:23;20.50;96.00
22161;DHT22;49035;48.812;11.762;2023-10-09T11:52:07;20.60;95.40
22161;DHT22;49035;48.812;11.762;2023-10-09T11:54:39;20.80;95.10
22161;DHT22;49035;48.812;11.762;2023-10-09T11:57:04;20.90;95.00
22161;DHT22;49035;48.812;11.762;2023-10-09T11:59:31;21.00;95.10
22161;DHT22;49035;48.812;11.762;2023-10-09T12:02:09;21.00;94.50
22161;DHT22;49035;48.812;11.762;2023-10-09T12:04:41;20.90;95.20
22161;DHT22;49035;48.812;11.762;2023-10-09T12:07:09;20.80;94.80
22161;DHT22;49035;48.812;11.762;2023-10-09T12:09:36;20.80;94.90
22161;DHT22;49035;48.812;11.762;2023-10-09T12:12:07;20.60;95.80
22161;DHT22;49035;48.812;11.762;2023-10-09T12:14:34;20.50;95.20
22161;DHT22;49035;48.812;11.762;2023-10-09T12:17:01;20.30;95.50
22161;DHT22;49035;48.812;11.762;2023-10-09T12:19:35;20.20;95.90
22161;DHT22;49035;48.812;11.762;2023-10-09T12:22:02;20.10;97.00
22161;DHT22;49035;48.812;11.762;2023-10-09T12:24:32;20.10;97.50
22161;DHT22;49035;48.812;11.762;2023-10-09T12:26:59;20.00;97.60
22161;DHT22;49035;48.812;11.762;2023-10-09T12:29:25;19.90;98.20
22161;DHT22;49035;48.812;11.762;2023-10-09T12:31:56;19.90;98.80
22161;DHT22;49035;48.812;11.762;2023-10-09T12:34:27;20.00;98.30
22161;DHT22;49035;48.812;11.762;2023-10-09T12:36:54;20.20;98.40
22161;DHT22;49035;48.812;11.762;2023-10-09T12:39:21;20.40;99.10
22161;DHT22;49035;48.812;11.762;2023-10-09T12:41:47;20.50;98.70
22161;DHT22;49035;48.812;11.762;2023-10-09T12:44:13;20.70;98.50
22161;DHT22;49035;48.812;11.762;2023-10-09T12:46:45;20.80;97.50
22161;DHT22;49035;48.812;11.762;2023-10-09T12:49:23;20.80;97.80
22161;DHT22;49035;48.812;11.762;2023-10-09T12:51:52;20.80;97.50
22161;DHT22;49035;48.812;11.762;2023-10-09T12:54:18;20.90;97.60
22161;DHT22;49035;48.812;11.762;2023-10-09T12:56:54;21.10;98.10
22161;DHT22;49035;48.812;11.762;2023-10-09T12:59:20;21.10;97.60
22161;DHT22;49035;48.812;11.762;2023-10-09T13:01:47;21.10;97.00
22161;DHT22;49035;48.812;11.762;2023-10-09T13:04:18;21.00;96.60
22161;DHT22;49035;48.812;11.762;2023-10-09T13:06:47;20.80;97.10
22161;DHT22;49035;48.812;11.762;2023-10-09T13:09:15;20.50;97.30
22161;DHT22;49035;48.812;11.762;2023-10-09T13:11:42;20.40;97.90
22161;DHT22;49035;48.812;11.762;2023-10-09T13:14:09;20.40;98.20
22161;DHT22;49035;48.812;11.762;2023-10-09T13:16:42;20.50;99.20
22161;DHT22;49035;48.812;11.762;2023-10-09T13:19:08;20.50;98.90
22161;DHT22;49035;48.812;11.762;2023-10-09T13:21:37;20.60;98.20
22161;DHT22;49035;48.812;11.762;2023-10-09T13:24:06;20.70;98.20
22161;DHT22;49035;48.812;11.762;2023-10-09T13:26:38;20.60;97.90
22161;DHT22;49035;48.812;11.762;2023-10-09T13:29:04;20.50;97.70
22161;DHT22;49035;48.812;11.762;2023-10-09T13:31:34;20.50;97.50
22161;DHT22;49035;48.812;11.762;2023-10-09T13:34:04;20.60;97.70
22161;DHT22;49035;48.812;11.762;2023-10-09T13:36:32;20.70;98.00
22161;DHT22;49035;48.812;11.762;2023-10-09T13:39:00;20.80;98.00
22161;DHT22;49035;48.812;11.762;2023-10-09T13:41:48;20.90;96.80
22161;DHT22;49035;48.812;11.762;2023-10-09T13:44:14;21.00;96.30
22161;DHT22;49035;48.812;11.762;2023-10-09T13:46:40;21.10;96.70
22161;DHT22;49035;48.812;11.762;2023-10-09T13:49:10;21.10;95.90
22161;DHT22;49035;48.812;11.762;2023-10-09T13:51:40;21.10;96.10
22161;DHT22;49035;48.812;11.762;2023-10-09T13:54:16;21.10;95.70
22161;DHT22;49035;48.812;11.762;2023-10-09T13:56:54;21.20;96.30
22161;DHT22;49035;48.812;11.762;2023-10-09T13:59:21;21.40;96.40
22161;DHT22;49035;48.812;11.762;2023-10-09T14:01:51;21.40;96.40
22161;DHT22;49035;48.812;11.762;2023-10-09T14:04:23;21.50;96.90
22161;DHT22;49035;48.812;11.762;2023-10-09T14:06:50;21.40;96.50
22161;DHT22;49035;48.812;11.762;2023-10-09T14:09:28;21.50;95.80
22161;DHT22;49035;48.812;11.762;2023-10-09T14:12:00;21.60;96.10
22161;DHT22;49035;48.812;11.762;2023-10-09T14:14:40;21.70;95.50
22161;DHT22;49035;48.812;11.762;2023-10-09T14:17:19;21.60;95.50
22161;DHT22;49035;48.812;11.762;2023-10-09T14:19:49;21.60;96.30
22161;DHT22;49035;48.812;11.762;2023-10-09T14:22:21;21.50;96.00
22161;DHT22;49035;48.812;11.762;2023-10-09T14:24:50;21.50;95.70
22161;DHT22;49035;48.812;11.762;2023-10-09T14:27:23;21.50;96.20
22161;DHT22;49035;48.812;11.762;2023-10-09T14:29:53;21.40;95.80
22161;DHT22;49035;48.812;11.762;2023-10-09T14:32:25;21.50;96.30
22161;DHT22;49035;48.812;11.762;2023-10-09T14:34:55;21.40;95.30
22161;DHT22;49035;48.812;11.762;2023-10-09T14:37:21;21.30;95.80
22161;DHT22;49035;48.812;11.762;2023-10-09T14:39:47;21.30;96.40
22161;DHT22;49035;48.812;11.762;2023-10-09T14:42:16;21.30;96.50
22161;DHT22;49035;48.812;11.762;2023-10-09T14:44:43;21.20;96.20
22161;DHT22;49035;48.812;11.762;2023-10-09T14:47:10;21.20;96.70
22161;DHT22;49035;48.812;11.762;2023-10-09T14:49:36;21.10;97.20
22161;DHT22;49035;48.812;11.762;2023-10-09T14:52:03;21.00;97.50
22161;DHT22;49035;48.812;11.762;2023-10-09T14:54:33;21.00;98.00
22161;DHT22;49035;48.812;11.762;2023-10-09T14:56:58;21.00;98.50
22161;DHT22;49035;48.812;11.762;2023-10-09T14:59:24;21.00;99.00
22161;DHT22;49035;48.812;11.762;2023-10-09T15:01:51;20.80;99.00
22161;DHT22;49035;48.812;11.762;2023-10-09T15:04:19;20.80;98.50
22161;DHT22;49035;48.812;11.762;2023-10-09T15:06:45;20.60;99.40
22161;DHT22;49035;48.812;11.762;2023-10-09T15:09:15;20.50;99.70
22161;DHT22;49035;48.812;11.762;2023-10-09T15:11:54;20.40;99.90
22161;DHT22;49035;48.812;11.762;2023-10-09T15:14:20;20.20;99.90
22161;DHT22;49035;48.812;11.762;2023-10-09T15:16:47;20.00;99.90
22161;DHT22;49035;48.812;11.762;2023-10-09T15:19:13;19.90;99.90
22161;DHT22;49035;48.812;11.762;2023-10-09T15:21:40;19.80;99.90
22161;DHT22;49035;48.812;11.762;2023-10-09T15:24:16;19.70;99.90
22161;DHT22;49035;48.812;11.762;2023-10-09T15:26:51;19.60;99.90
22161;DHT22;49035;48.812;11.762;2023-10-09T15:29:23;19.40;99.90
22161;DHT22;49035;48.812;11.762;2023-10-09T15:31:54;19.30;99.90
22161;DHT22;49035;48.812;11.762;2023-10-09T15:34:20;19.20;99.90
22161;DHT22;49035;48.812;11.762;2023-10-09T15:36:47;19.10;99.90
22161;DHT22;49035;48.812;11.762;2023-10-09T15:39:13;19.00;99.90
22161;DHT22;49035;48.812;11.762;2023-10-09T15:41:39;18.90;99.90
22161;DHT22;49035;48.812;11.762;2023-10-09T15:44:05;18.80;99.90
22161;DHT22;49035;48.812;11.762;2023-10-09T15:46:31;18.70;99.90
22161;DHT22;49035;48.812;11.762;2023-10-09T15:49:00;18.60;99.90
22161;DHT22;49035;48.812;11.762;2023-10-09T15:51:27;18.60;99.90
22161;DHT22;49035;48.812;11.762;2023-10-09T15:53:53;18.50;99.90
22161;DHT22;49035;48.812;11.762;2023-10-09T15:56:18;18.40;99.90
22161;DHT22;49035;48.812;11.762;2023-10-09T15:58:46;18.30;99.90
22161;DHT22;49035;48.812;11.762;2023-10-09T16:01:13;18.20;99.90
22161;DHT22;49035;48.812;11.762;2023-10-09T16:03:40;18.10;99.90
22161;DHT22;49035;48.812;11.762;2023-10-09T16:06:07;18.00;99.90